SCO29JP EGPH-EGPF

Flight info

Callsign SCO29JP
Flight time N/A
Altitude 8000
Route GRICE
Aircraft A320/M-SDE3FGHIRWY/LB1

Departure

Time 2026-05-01 10:09
Airport Edinburgh Airport (EGPH)

Arrival

Time N/A
Airport Glasgow Airport (EGPF)
Time Latitude Longitude Altitude Speed Heading
2026-05-01 09:49 55.94881 -3.36548 113 ft 0 kts 148°
2026-05-01 09:55 55.94919 -3.36429 114 ft 0 kts 148°
2026-05-01 10:01 55.94937 -3.36448 114 ft 4 kts 148°
2026-05-01 10:01 55.94946 -3.36458 112 ft 0 kts 150°
2026-05-01 10:02 55.94943 -3.36455 112 ft 0 kts 150°
2026-05-01 10:02 55.94947 -3.36459 113 ft 2 kts 150°
2026-05-01 10:02 55.94962 -3.36474 114 ft 2 kts 150°
2026-05-01 10:03 55.94976 -3.36489 112 ft 2 kts 150°
2026-05-01 10:03 55.94987 -3.36500 113 ft 0 kts 150°
2026-05-01 10:04 55.94985 -3.36492 113 ft 1 kts 119°
2026-05-01 10:05 55.95001 -3.36438 114 ft 10 kts 58°
2026-05-01 10:05 55.95063 -3.36399 114 ft 10 kts 354°
2026-05-01 10:05 55.95113 -3.36345 112 ft 9 kts 58°
2026-05-01 10:05 55.95143 -3.36257 113 ft 8 kts 58°
2026-05-01 10:06 55.95159 -3.36212 116 ft 7 kts 59°
2026-05-01 10:06 55.95184 -3.36135 112 ft 13 kts 59°
2026-05-01 10:06 55.95238 -3.35974 111 ft 17 kts 58°
2026-05-01 10:07 55.95302 -3.35785 113 ft 19 kts 58°
2026-05-01 10:07 55.95376 -3.35569 112 ft 22 kts 58°
2026-05-01 10:07 55.95480 -3.35419 114 ft 21 kts 336°
2026-05-01 10:07 55.95568 -3.35572 113 ft 9 kts 257°
2026-05-01 10:08 55.95552 -3.35614 112 ft 0 kts 239°
2026-05-01 10:08 55.95476 -3.35845 112 ft 61 kts 239°
2026-05-01 10:08 55.95120 -3.36892 114 ft 132 kts 238°
2026-05-01 10:09 55.94550 -3.38573 258 ft 173 kts 239°
2026-05-01 10:09 55.93942 -3.40376 1096 ft 169 kts 239°
2026-05-01 10:09 55.93324 -3.42172 1829 ft 180 kts 238°
2026-05-01 10:09 55.92622 -3.44190 2340 ft 203 kts 237°
2026-05-01 10:10 55.91839 -3.46439 2855 ft 224 kts 237°
2026-05-01 10:10 55.90975 -3.48920 3470 ft 248 kts 236°
2026-05-01 10:10 55.90238 -3.55115 5242 ft 279 kts 287°
2026-05-01 10:11 55.91319 -3.58019 5773 ft 285 kts 318°
2026-05-01 10:11 55.93088 -3.59490 5948 ft 286 kts 351°
2026-05-01 10:11 55.95043 -3.59038 6003 ft 285 kts 24°
2026-05-01 10:11 55.96704 -3.57128 6014 ft 286 kts 41°
2026-05-01 10:12 55.97614 -3.55684 6014 ft 286 kts 44°
2026-05-01 10:12 55.98078 -3.54920 6061 ft 284 kts 44°